RYR1599 EDDN-LEGE
Flight info
| Callsign | RYR1599 |
|---|---|
| Flight time | 1h 49m |
| Altitude | 37000 |
| Route | BOLSI1C BOLSI Y166 DKB N869 MILPA T14 ONNOF UN852 DIVKO UN975 NILDU N975 BGR |
| Aircraft | B738/M-SDE2E3FGHIRWXY/LB1 |
Departure
| Time | 2026-04-28 15:16 |
|---|---|
| Airport | Nuremberg Airport (EDDN) |
Arrival
| Time | 2026-04-28 17:06 |
|---|---|
| Airport | Girona-Costa Brava Airport (LEGE) |
| Time | Latitude | Longitude | Altitude | Speed | Heading |
|---|---|---|---|---|---|
| 2026-04-28 14:54 | 49.49497 | 11.08044 | 1030 ft | 0 kts | 188° |
| 2026-04-28 15:07 | 49.49500 | 11.08045 | 1030 ft | 2 kts | 188° |
| 2026-04-28 15:07 | 49.49515 | 11.08048 | 1030 ft | 2 kts | 192° |
| 2026-04-28 15:07 | 49.49529 | 11.08058 | 1030 ft | 2 kts | 214° |
| 2026-04-28 15:07 | 49.49540 | 11.08073 | 1030 ft | 2 kts | 231° |
| 2026-04-28 15:08 | 49.49548 | 11.08092 | 1030 ft | 2 kts | 248° |
| 2026-04-28 15:08 | 49.49552 | 11.08114 | 1030 ft | 2 kts | 265° |
| 2026-04-28 15:08 | 49.49552 | 11.08130 | 1030 ft | 0 kts | 277° |
| 2026-04-28 15:08 | 49.49551 | 11.08140 | 1030 ft | 0 kts | 279° |
| 2026-04-28 15:10 | 49.49553 | 11.08123 | 1030 ft | 2 kts | 279° |
| 2026-04-28 15:10 | 49.49558 | 11.08078 | 1030 ft | 6 kts | 279° |
| 2026-04-28 15:11 | 49.49566 | 11.07994 | 1029 ft | 9 kts | 278° |
| 2026-04-28 15:11 | 49.49578 | 11.07859 | 1027 ft | 14 kts | 278° |
| 2026-04-28 15:11 | 49.49630 | 11.07768 | 1025 ft | 11 kts | 4° |
| 2026-04-28 15:11 | 49.49686 | 11.07719 | 1024 ft | 10 kts | 283° |
| 2026-04-28 15:12 | 49.49699 | 11.07596 | 1023 ft | 12 kts | 279° |
| 2026-04-28 15:12 | 49.49711 | 11.07466 | 1022 ft | 12 kts | 278° |
| 2026-04-28 15:12 | 49.49725 | 11.07323 | 1020 ft | 14 kts | 278° |
| 2026-04-28 15:12 | 49.49741 | 11.07169 | 1020 ft | 14 kts | 279° |
| 2026-04-28 15:13 | 49.49756 | 11.07014 | 1020 ft | 14 kts | 278° |
| 2026-04-28 15:13 | 49.49770 | 11.06862 | 1019 ft | 14 kts | 278° |
| 2026-04-28 15:13 | 49.49786 | 11.06701 | 1019 ft | 14 kts | 279° |
| 2026-04-28 15:13 | 49.49802 | 11.06540 | 1017 ft | 16 kts | 278° |
| 2026-04-28 15:14 | 49.49818 | 11.06371 | 1016 ft | 15 kts | 278° |
| 2026-04-28 15:14 | 49.49833 | 11.06211 | 1016 ft | 14 kts | 278° |
| 2026-04-28 15:14 | 49.49851 | 11.06056 | 1017 ft | 14 kts | 287° |
| 2026-04-28 15:14 | 49.49915 | 11.05964 | 1018 ft | 12 kts | 338° |
| 2026-04-28 15:15 | 49.49991 | 11.05933 | 1019 ft | 9 kts | 1° |
| 2026-04-28 15:15 | 49.50044 | 11.05955 | 1021 ft | 5 kts | 47° |
| 2026-04-28 15:15 | 49.50047 | 11.06020 | 1021 ft | 12 kts | 95° |
| 2026-04-28 15:15 | 49.49995 | 11.06541 | 1023 ft | 83 kts | 98° |
| 2026-04-28 15:16 | 49.49874 | 11.07756 | 1029 ft | 142 kts | 98° |
| 2026-04-28 15:16 | 49.49696 | 11.09456 | 1324 ft | 168 kts | 98° |
| 2026-04-28 15:16 | 49.49458 | 11.11230 | 1962 ft | 174 kts | 100° |
| 2026-04-28 15:16 | 49.49234 | 11.13052 | 2605 ft | 181 kts | 97° |
| 2026-04-28 15:17 | 49.49030 | 11.15103 | 2873 ft | 201 kts | 95° |
| 2026-04-28 15:17 | 49.48833 | 11.17403 | 3063 ft | 229 kts | 96° |
| 2026-04-28 15:17 | 49.48640 | 11.19897 | 3725 ft | 238 kts | 98° |
| 2026-04-28 15:17 | 49.48451 | 11.22556 | 4295 ft | 253 kts | 97° |
| 2026-04-28 15:18 | 49.48139 | 11.25221 | 5017 ft | 259 kts | 110° |
| 2026-04-28 15:18 | 49.47145 | 11.27504 | 5704 ft | 263 kts | 142° |
| 2026-04-28 15:18 | 49.45459 | 11.28513 | 6557 ft | 264 kts | 176° |
| 2026-04-28 15:18 | 49.43701 | 11.27881 | 7381 ft | 267 kts | 207° |
| 2026-04-28 15:19 | 49.42089 | 11.26403 | 8158 ft | 269 kts | 205° |
| 2026-04-28 15:19 | 49.40376 | 11.25265 | 8885 ft | 272 kts | 197° |
| 2026-04-28 15:19 | 49.38543 | 11.24531 | 9670 ft | 272 kts | 189° |
| 2026-04-28 15:19 | 49.36648 | 11.24168 | 10362 ft | 276 kts | 186° |
| 2026-04-28 15:20 | 49.34723 | 11.23917 | 11012 ft | 280 kts | 193° |
| 2026-04-28 15:20 | 49.32925 | 11.22800 | 11680 ft | 280 kts | 215° |
| 2026-04-28 15:20 | 49.31469 | 11.20818 | 12392 ft | 281 kts | 231° |
| 2026-04-28 15:20 | 49.30410 | 11.18216 | 12546 ft | 304 kts | 246° |
| 2026-04-28 15:21 | 49.29704 | 11.15033 | 12642 ft | 327 kts | 253° |
| 2026-04-28 15:21 | 49.29156 | 11.11643 | 13112 ft | 337 kts | 256° |
| 2026-04-28 15:21 | 49.28645 | 11.08142 | 13804 ft | 339 kts | 256° |
| 2026-04-28 15:21 | 49.28153 | 11.04662 | 14550 ft | 340 kts | 257° |
| 2026-04-28 15:22 | 49.27665 | 11.01186 | 15287 ft | 342 kts | 257° |
| 2026-04-28 15:22 | 49.27154 | 10.97605 | 16048 ft | 342 kts | 257° |
| 2026-04-28 15:22 | 49.26631 | 10.94024 | 16759 ft | 344 kts | 257° |
| 2026-04-28 15:22 | 49.26094 | 10.90469 | 17457 ft | 345 kts | 257° |
| 2026-04-28 15:23 | 49.25528 | 10.86896 | 18125 ft | 346 kts | 256° |
| 2026-04-28 15:23 | 49.24927 | 10.83300 | 18783 ft | 348 kts | 256° |
| 2026-04-28 15:23 | 49.24296 | 10.79744 | 19411 ft | 349 kts | 256° |
| 2026-04-28 15:23 | 49.23650 | 10.76167 | 20012 ft | 351 kts | 256° |
| 2026-04-28 15:24 | 49.22958 | 10.72572 | 20607 ft | 353 kts | 255° |
| 2026-04-28 15:24 | 49.22237 | 10.68963 | 21189 ft | 355 kts | 255° |
| 2026-04-28 15:24 | 49.21537 | 10.65308 | 21734 ft | 357 kts | 256° |
| 2026-04-28 15:24 | 49.20868 | 10.61671 | 22287 ft | 358 kts | 257° |
| 2026-04-28 15:25 | 49.20208 | 10.57979 | 22794 ft | 360 kts | 257° |
| 2026-04-28 15:25 | 49.19568 | 10.54337 | 23311 ft | 362 kts | 257° |
| 2026-04-28 15:25 | 49.18921 | 10.50623 | 23807 ft | 363 kts | 258° |
| 2026-04-28 15:25 | 49.18263 | 10.46832 | 24287 ft | 365 kts | 258° |
| 2026-04-28 15:26 | 49.17621 | 10.43119 | 24752 ft | 367 kts | 258° |
| 2026-04-28 15:26 | 49.16965 | 10.39328 | 25217 ft | 369 kts | 258° |
| 2026-04-28 15:26 | 49.16311 | 10.35541 | 25652 ft | 371 kts | 258° |
| 2026-04-28 15:26 | 49.15655 | 10.31771 | 26076 ft | 373 kts | 258° |
| 2026-04-28 15:27 | 49.14954 | 10.27955 | 26508 ft | 376 kts | 255° |
| 2026-04-28 15:27 | 49.14003 | 10.24246 | 26912 ft | 382 kts | 249° |
| 2026-04-28 15:27 | 49.12620 | 10.20704 | 27317 ft | 391 kts | 240° |
| 2026-04-28 15:27 | 49.10969 | 10.17447 | 27691 ft | 396 kts | 238° |
| 2026-04-28 15:28 | 49.09220 | 10.14157 | 27962 ft | 401 kts | 238° |
| 2026-04-28 15:28 | 49.07454 | 10.10842 | 28286 ft | 404 kts | 238° |
| 2026-04-28 15:28 | 49.05667 | 10.07483 | 28574 ft | 408 kts | 238° |
| 2026-04-28 15:28 | 49.03868 | 10.04098 | 28835 ft | 413 kts | 238° |
| 2026-04-28 15:29 | 49.02072 | 10.00718 | 29132 ft | 416 kts | 239° |
| 2026-04-28 15:29 | 49.00249 | 9.97292 | 29489 ft | 417 kts | 239° |
| 2026-04-28 15:29 | 48.98415 | 9.93846 | 29852 ft | 419 kts | 239° |
| 2026-04-28 15:29 | 48.96560 | 9.90365 | 30181 ft | 421 kts | 239° |
| 2026-04-28 15:30 | 48.94703 | 9.86882 | 30575 ft | 421 kts | 239° |
| 2026-04-28 15:30 | 48.92852 | 9.83417 | 31016 ft | 420 kts | 239° |
| 2026-04-28 15:30 | 48.91014 | 9.79980 | 31394 ft | 420 kts | 239° |
| 2026-04-28 15:30 | 48.89201 | 9.76594 | 31810 ft | 419 kts | 239° |
| 2026-04-28 15:31 | 48.87347 | 9.73134 | 32183 ft | 418 kts | 240° |
| 2026-04-28 15:31 | 48.85510 | 9.69707 | 32547 ft | 418 kts | 240° |
| 2026-04-28 15:31 | 48.83678 | 9.66293 | 32904 ft | 417 kts | 240° |
| 2026-04-28 15:31 | 48.81835 | 9.62861 | 33235 ft | 417 kts | 240° |
| 2026-04-28 15:32 | 48.80001 | 9.59452 | 33571 ft | 417 kts | 240° |
| 2026-04-28 15:32 | 48.78176 | 9.56062 | 33891 ft | 416 kts | 240° |
| 2026-04-28 15:32 | 48.76351 | 9.52677 | 34258 ft | 415 kts | 240° |
| 2026-04-28 15:32 | 48.74518 | 9.49277 | 34563 ft | 414 kts | 240° |
| 2026-04-28 15:33 | 48.72717 | 9.45943 | 34875 ft | 414 kts | 240° |
| 2026-04-28 15:33 | 48.70882 | 9.42551 | 35171 ft | 413 kts | 240° |
| 2026-04-28 15:33 | 48.69083 | 9.39235 | 35466 ft | 413 kts | 240° |
| 2026-04-28 15:33 | 48.67266 | 9.35886 | 35781 ft | 411 kts | 240° |
| 2026-04-28 15:34 | 48.65456 | 9.32555 | 36030 ft | 412 kts | 240° |
| 2026-04-28 15:34 | 48.63650 | 9.29242 | 36328 ft | 411 kts | 240° |
| 2026-04-28 15:34 | 48.61855 | 9.25943 | 36581 ft | 410 kts | 240° |
| 2026-04-28 15:34 | 48.60146 | 9.22535 | 36820 ft | 407 kts | 243° |
| 2026-04-28 15:35 | 48.58526 | 9.19070 | 37040 ft | 406 kts | 244° |
| 2026-04-28 15:35 | 48.53675 | 9.08670 | 37047 ft | 403 kts | 244° |
| 2026-04-28 15:36 | 48.50475 | 9.01869 | 37047 ft | 398 kts | 243° |
| 2026-04-28 15:36 | 48.47302 | 8.95151 | 37047 ft | 396 kts | 243° |
| 2026-04-28 15:37 | 48.44130 | 8.88465 | 37047 ft | 395 kts | 242° |
| 2026-04-28 15:37 | 48.40961 | 8.81823 | 37047 ft | 394 kts | 242° |
| 2026-04-28 15:38 | 48.37764 | 8.75141 | 37047 ft | 394 kts | 242° |
| 2026-04-28 15:38 | 48.34584 | 8.68509 | 37047 ft | 395 kts | 242° |
| 2026-04-28 15:39 | 48.31382 | 8.61845 | 37047 ft | 394 kts | 242° |
| 2026-04-28 15:39 | 48.28171 | 8.55179 | 37045 ft | 394 kts | 242° |
| 2026-04-28 15:40 | 48.24992 | 8.48593 | 37041 ft | 394 kts | 242° |
| 2026-04-28 15:40 | 48.21778 | 8.41952 | 37033 ft | 394 kts | 242° |
| 2026-04-28 15:41 | 48.18544 | 8.35442 | 37023 ft | 398 kts | 238° |
| 2026-04-28 15:41 | 48.14323 | 8.29952 | 37022 ft | 419 kts | 220° |
| 2026-04-28 15:42 | 48.09164 | 8.25678 | 37024 ft | 424 kts | 217° |
| 2026-04-28 15:42 | 48.03988 | 8.21517 | 37024 ft | 423 kts | 217° |
| 2026-04-28 15:43 | 47.98837 | 8.17370 | 37022 ft | 422 kts | 217° |
| 2026-04-28 15:43 | 47.93652 | 8.13194 | 37028 ft | 422 kts | 217° |
| 2026-04-28 15:44 | 47.88486 | 8.09038 | 37037 ft | 422 kts | 217° |
| 2026-04-28 15:44 | 47.83354 | 8.04917 | 37046 ft | 422 kts | 217° |
| 2026-04-28 15:45 | 47.78210 | 8.00793 | 37047 ft | 423 kts | 217° |
| 2026-04-28 15:45 | 47.73097 | 7.96705 | 37047 ft | 423 kts | 217° |
| 2026-04-28 15:46 | 47.67935 | 7.92585 | 37047 ft | 423 kts | 217° |
| 2026-04-28 15:46 | 47.62786 | 7.88486 | 37047 ft | 422 kts | 217° |
| 2026-04-28 15:47 | 47.57623 | 7.84383 | 37047 ft | 422 kts | 217° |
| 2026-04-28 15:47 | 47.52466 | 7.80296 | 37047 ft | 422 kts | 217° |
| 2026-04-28 15:48 | 47.47331 | 7.76234 | 37047 ft | 422 kts | 217° |
| 2026-04-28 15:48 | 47.42165 | 7.72157 | 37047 ft | 423 kts | 217° |
| 2026-04-28 15:49 | 47.37006 | 7.68095 | 37047 ft | 422 kts | 217° |
| 2026-04-28 15:49 | 47.31855 | 7.64049 | 37047 ft | 422 kts | 217° |
| 2026-04-28 15:50 | 47.26689 | 7.60152 | 37047 ft | 425 kts | 216° |
| 2026-04-28 15:50 | 47.21432 | 7.56362 | 37047 ft | 425 kts | 216° |
| 2026-04-28 15:51 | 47.16161 | 7.52560 | 37047 ft | 425 kts | 216° |
| 2026-04-28 15:51 | 47.10884 | 7.48756 | 37047 ft | 425 kts | 216° |
| 2026-04-28 15:52 | 47.05611 | 7.44959 | 37047 ft | 425 kts | 216° |
| 2026-04-28 15:52 | 47.00427 | 7.41223 | 37046 ft | 425 kts | 215° |
| 2026-04-28 15:53 | 46.95014 | 7.37316 | 37047 ft | 430 kts | 214° |
| 2026-04-28 15:53 | 46.89550 | 7.33390 | 37046 ft | 434 kts | 212° |
| 2026-04-28 15:54 | 46.84039 | 7.29458 | 37047 ft | 436 kts | 212° |
| 2026-04-28 15:54 | 46.78517 | 7.25541 | 37046 ft | 435 kts | 212° |
| 2026-04-28 15:55 | 46.73065 | 7.21671 | 37047 ft | 435 kts | 212° |
| 2026-04-28 15:55 | 46.67585 | 7.17788 | 37042 ft | 435 kts | 212° |
| 2026-04-28 15:56 | 46.62055 | 7.13874 | 37035 ft | 433 kts | 212° |
| 2026-04-28 15:56 | 46.56542 | 7.09982 | 37032 ft | 432 kts | 212° |
| 2026-04-28 15:57 | 46.51057 | 7.06116 | 37031 ft | 430 kts | 212° |
| 2026-04-28 15:57 | 46.45566 | 7.02254 | 37028 ft | 430 kts | 212° |
| 2026-04-28 15:58 | 46.40115 | 6.98430 | 37022 ft | 429 kts | 212° |
| 2026-04-28 15:58 | 46.34634 | 6.94592 | 37020 ft | 427 kts | 211° |
| 2026-04-28 15:59 | 46.29221 | 6.90812 | 37022 ft | 427 kts | 211° |
| 2026-04-28 15:59 | 46.23753 | 6.87001 | 37021 ft | 428 kts | 211° |
| 2026-04-28 16:00 | 46.18286 | 6.83199 | 37020 ft | 428 kts | 211° |
| 2026-04-28 16:00 | 46.12851 | 6.79429 | 37020 ft | 428 kts | 211° |
| 2026-04-28 16:01 | 46.07383 | 6.75643 | 37020 ft | 428 kts | 211° |
| 2026-04-28 16:01 | 46.01918 | 6.71867 | 37014 ft | 428 kts | 211° |
| 2026-04-28 16:02 | 45.96447 | 6.68096 | 37008 ft | 428 kts | 211° |
| 2026-04-28 16:02 | 45.90973 | 6.64331 | 37000 ft | 428 kts | 211° |
| 2026-04-28 16:03 | 45.85608 | 6.60649 | 36999 ft | 427 kts | 212° |
| 2026-04-28 16:03 | 45.80224 | 6.56962 | 37000 ft | 428 kts | 212° |
| 2026-04-28 16:04 | 45.74873 | 6.53305 | 37000 ft | 428 kts | 212° |
| 2026-04-28 16:04 | 45.69517 | 6.49653 | 37000 ft | 428 kts | 212° |
| 2026-04-28 16:05 | 45.64177 | 6.46020 | 36999 ft | 428 kts | 212° |
| 2026-04-28 16:05 | 45.58830 | 6.42390 | 37000 ft | 428 kts | 212° |
| 2026-04-28 16:06 | 45.53538 | 6.38804 | 37000 ft | 428 kts | 212° |
| 2026-04-28 16:06 | 45.48161 | 6.35169 | 37000 ft | 428 kts | 211° |
| 2026-04-28 16:07 | 45.42851 | 6.31587 | 37000 ft | 429 kts | 211° |
| 2026-04-28 16:08 | 45.34796 | 6.26168 | 36999 ft | 428 kts | 211° |
| 2026-04-28 16:08 | 45.29449 | 6.22580 | 36999 ft | 428 kts | 211° |
| 2026-04-28 16:09 | 45.21320 | 6.17139 | 37000 ft | 428 kts | 211° |
| 2026-04-28 16:10 | 45.13062 | 6.11630 | 37000 ft | 428 kts | 211° |
| 2026-04-28 16:10 | 45.04748 | 6.06121 | 37000 ft | 432 kts | 212° |
| 2026-04-28 16:11 | 44.93466 | 5.98653 | 37001 ft | 444 kts | 213° |
| 2026-04-28 16:12 | 44.84898 | 5.92983 | 37000 ft | 443 kts | 213° |
| 2026-04-28 16:13 | 44.76416 | 5.87398 | 36999 ft | 442 kts | 213° |
| 2026-04-28 16:14 | 44.65017 | 5.79924 | 37000 ft | 443 kts | 213° |
| 2026-04-28 16:15 | 44.53653 | 5.72510 | 36999 ft | 442 kts | 213° |
| 2026-04-28 16:15 | 44.47974 | 5.68817 | 36999 ft | 442 kts | 213° |
| 2026-04-28 16:16 | 44.39378 | 5.63242 | 36996 ft | 442 kts | 213° |
| 2026-04-28 16:17 | 44.30593 | 5.58197 | 36993 ft | 447 kts | 210° |
| 2026-04-28 16:17 | 44.24687 | 5.55005 | 36995 ft | 447 kts | 210° |
| 2026-04-28 16:18 | 44.18801 | 5.51813 | 36993 ft | 446 kts | 210° |
| 2026-04-28 16:18 | 44.12904 | 5.48609 | 36995 ft | 446 kts | 210° |
| 2026-04-28 16:19 | 44.06995 | 5.45392 | 37003 ft | 447 kts | 210° |
| 2026-04-28 16:19 | 44.01089 | 5.42196 | 37007 ft | 447 kts | 210° |
| 2026-04-28 16:20 | 43.95213 | 5.39024 | 37008 ft | 446 kts | 210° |
| 2026-04-28 16:20 | 43.89342 | 5.35848 | 37012 ft | 446 kts | 210° |
| 2026-04-28 16:21 | 43.83418 | 5.32648 | 37019 ft | 447 kts | 209° |
| 2026-04-28 16:21 | 43.77524 | 5.29469 | 37020 ft | 448 kts | 209° |
| 2026-04-28 16:22 | 43.71617 | 5.26293 | 37019 ft | 448 kts | 209° |
| 2026-04-28 16:22 | 43.65699 | 5.23118 | 37019 ft | 447 kts | 209° |
| 2026-04-28 16:23 | 43.59770 | 5.19944 | 37019 ft | 447 kts | 209° |
| 2026-04-28 16:23 | 43.53925 | 5.16822 | 37020 ft | 447 kts | 209° |
| 2026-04-28 16:24 | 43.48049 | 5.13689 | 37020 ft | 447 kts | 209° |
| 2026-04-28 16:24 | 43.42250 | 5.10575 | 37019 ft | 445 kts | 211° |
| 2026-04-28 16:25 | 43.36752 | 5.06690 | 37021 ft | 433 kts | 221° |
| 2026-04-28 16:25 | 43.31801 | 5.01952 | 37015 ft | 423 kts | 230° |
| 2026-04-28 16:26 | 43.27716 | 4.96223 | 37020 ft | 415 kts | 234° |
| 2026-04-28 16:26 | 43.23694 | 4.90500 | 37019 ft | 411 kts | 233° |
| 2026-04-28 16:27 | 43.19640 | 4.84873 | 37020 ft | 408 kts | 233° |
| 2026-04-28 16:28 | 43.13596 | 4.76624 | 37020 ft | 406 kts | 232° |
| 2026-04-28 16:28 | 43.09534 | 4.71133 | 37020 ft | 406 kts | 232° |
| 2026-04-28 16:29 | 43.03431 | 4.62922 | 37020 ft | 407 kts | 232° |
| 2026-04-28 16:29 | 42.99344 | 4.57438 | 36421 ft | 404 kts | 232° |
| 2026-04-28 16:30 | 42.97327 | 4.54737 | 35789 ft | 404 kts | 231° |
| 2026-04-28 16:30 | 42.95300 | 4.52026 | 35297 ft | 400 kts | 231° |
| 2026-04-28 16:30 | 42.93304 | 4.49363 | 34810 ft | 396 kts | 231° |
| 2026-04-28 16:30 | 42.91325 | 4.46723 | 34319 ft | 393 kts | 231° |
| 2026-04-28 16:31 | 42.89352 | 4.44093 | 33829 ft | 390 kts | 231° |
| 2026-04-28 16:31 | 42.87401 | 4.41493 | 33342 ft | 387 kts | 231° |
| 2026-04-28 16:31 | 42.85469 | 4.38925 | 32865 ft | 384 kts | 231° |
| 2026-04-28 16:31 | 42.83540 | 4.36364 | 32387 ft | 381 kts | 231° |
| 2026-04-28 16:32 | 42.81674 | 4.33890 | 31922 ft | 379 kts | 230° |
| 2026-04-28 16:32 | 42.77890 | 4.28878 | 30983 ft | 374 kts | 230° |
| 2026-04-28 16:32 | 42.75997 | 4.26373 | 30501 ft | 372 kts | 230° |
| 2026-04-28 16:33 | 42.74129 | 4.23903 | 30043 ft | 369 kts | 230° |
| 2026-04-28 16:33 | 42.72890 | 4.22264 | 29720 ft | 368 kts | 230° |
| 2026-04-28 16:33 | 42.70427 | 4.19012 | 29086 ft | 366 kts | 230° |
| 2026-04-28 16:33 | 42.68606 | 4.16609 | 28627 ft | 364 kts | 230° |
| 2026-04-28 16:34 | 42.66778 | 4.14199 | 28162 ft | 362 kts | 230° |
| 2026-04-28 16:34 | 42.64944 | 4.11783 | 27699 ft | 360 kts | 230° |
| 2026-04-28 16:34 | 42.63145 | 4.09416 | 27239 ft | 358 kts | 230° |
| 2026-04-28 16:34 | 42.61335 | 4.07035 | 26775 ft | 356 kts | 230° |
| 2026-04-28 16:35 | 42.59549 | 4.04688 | 26319 ft | 354 kts | 230° |
| 2026-04-28 16:35 | 42.57763 | 4.02344 | 25858 ft | 352 kts | 230° |
| 2026-04-28 16:35 | 42.55998 | 4.00028 | 25403 ft | 350 kts | 230° |
| 2026-04-28 16:35 | 42.54227 | 3.97708 | 24948 ft | 349 kts | 230° |
| 2026-04-28 16:36 | 42.52478 | 3.95416 | 24496 ft | 347 kts | 230° |
| 2026-04-28 16:36 | 42.50718 | 3.93114 | 24041 ft | 345 kts | 230° |
| 2026-04-28 16:36 | 42.48965 | 3.90822 | 23587 ft | 344 kts | 229° |
| 2026-04-28 16:36 | 42.47250 | 3.88582 | 23146 ft | 342 kts | 229° |
| 2026-04-28 16:37 | 42.45523 | 3.86327 | 22702 ft | 340 kts | 229° |
| 2026-04-28 16:37 | 42.43794 | 3.84073 | 22256 ft | 338 kts | 229° |
| 2026-04-28 16:37 | 42.42082 | 3.81842 | 21818 ft | 337 kts | 229° |
| 2026-04-28 16:38 | 42.38696 | 3.77435 | 20946 ft | 333 kts | 229° |
| 2026-04-28 16:38 | 42.37028 | 3.75266 | 20519 ft | 331 kts | 229° |
| 2026-04-28 16:38 | 42.35348 | 3.73084 | 20090 ft | 329 kts | 229° |
| 2026-04-28 16:38 | 42.33685 | 3.70925 | 19657 ft | 328 kts | 229° |
| 2026-04-28 16:39 | 42.32019 | 3.68764 | 19226 ft | 326 kts | 229° |
| 2026-04-28 16:39 | 42.30370 | 3.66626 | 18810 ft | 324 kts | 229° |
| 2026-04-28 16:39 | 42.28748 | 3.64528 | 18477 ft | 320 kts | 229° |
| 2026-04-28 16:39 | 42.27129 | 3.62433 | 18048 ft | 319 kts | 229° |
| 2026-04-28 16:40 | 42.25513 | 3.60343 | 17628 ft | 317 kts | 229° |
| 2026-04-28 16:40 | 42.23892 | 3.58248 | 17209 ft | 316 kts | 229° |
| 2026-04-28 16:40 | 42.22279 | 3.56165 | 16787 ft | 315 kts | 229° |
| 2026-04-28 16:40 | 42.20679 | 3.54101 | 16368 ft | 313 kts | 229° |
| 2026-04-28 16:41 | 42.19092 | 3.52055 | 15952 ft | 312 kts | 229° |
| 2026-04-28 16:41 | 42.17508 | 3.50014 | 15538 ft | 311 kts | 229° |
| 2026-04-28 16:41 | 42.15938 | 3.47974 | 15124 ft | 309 kts | 231° |
| 2026-04-28 16:41 | 42.14669 | 3.45648 | 14713 ft | 301 kts | 248° |
| 2026-04-28 16:42 | 42.14048 | 3.43002 | 14363 ft | 290 kts | 267° |
| 2026-04-28 16:42 | 42.14102 | 3.40293 | 14109 ft | 280 kts | 280° |
| 2026-04-28 16:42 | 42.14397 | 3.37734 | 13895 ft | 273 kts | 282° |
| 2026-04-28 16:42 | 42.14702 | 3.35199 | 13689 ft | 266 kts | 282° |
| 2026-04-28 16:43 | 42.15001 | 3.32708 | 13488 ft | 272 kts | 281° |
| 2026-04-28 16:43 | 42.15317 | 3.30091 | 13227 ft | 287 kts | 281° |
| 2026-04-28 16:43 | 42.15648 | 3.27379 | 12857 ft | 288 kts | 281° |
| 2026-04-28 16:43 | 42.15974 | 3.24704 | 12511 ft | 286 kts | 281° |
| 2026-04-28 16:44 | 42.16302 | 3.22011 | 12146 ft | 283 kts | 281° |
| 2026-04-28 16:44 | 42.16621 | 3.19405 | 11792 ft | 281 kts | 281° |
| 2026-04-28 16:44 | 42.16949 | 3.16776 | 11350 ft | 274 kts | 281° |
| 2026-04-28 16:44 | 42.17277 | 3.14254 | 10840 ft | 269 kts | 281° |
| 2026-04-28 16:45 | 42.17607 | 3.11789 | 10338 ft | 264 kts | 281° |
| 2026-04-28 16:45 | 42.17947 | 3.09341 | 9829 ft | 260 kts | 281° |
| 2026-04-28 16:45 | 42.18300 | 3.06963 | 9327 ft | 256 kts | 281° |
| 2026-04-28 16:45 | 42.18668 | 3.04613 | 8767 ft | 256 kts | 281° |
| 2026-04-28 16:46 | 42.19065 | 3.02237 | 8134 ft | 258 kts | 281° |
| 2026-04-28 16:46 | 42.19443 | 2.99848 | 7503 ft | 259 kts | 275° |
| 2026-04-28 16:46 | 42.19221 | 2.97488 | 6867 ft | 257 kts | 244° |
| 2026-04-28 16:46 | 42.18184 | 2.95544 | 6412 ft | 250 kts | 229° |
| 2026-04-28 16:47 | 42.17057 | 2.93731 | 5795 ft | 252 kts | 232° |
| 2026-04-28 16:47 | 42.16028 | 2.91799 | 5271 ft | 249 kts | 236° |
| 2026-04-28 16:47 | 42.15078 | 2.89784 | 4706 ft | 249 kts | 237° |
| 2026-04-28 16:47 | 42.14163 | 2.87799 | 4229 ft | 245 kts | 237° |
| 2026-04-28 16:48 | 42.13235 | 2.85884 | 4075 ft | 237 kts | 232° |
| 2026-04-28 16:48 | 42.12010 | 2.84503 | 4043 ft | 222 kts | 203° |
| 2026-04-28 16:48 | 42.10562 | 2.83861 | 4065 ft | 213 kts | 197° |
| 2026-04-28 16:48 | 42.09109 | 2.83300 | 4044 ft | 212 kts | 195° |
| 2026-04-28 16:49 | 42.07662 | 2.82747 | 3808 ft | 216 kts | 196° |
| 2026-04-28 16:49 | 42.06201 | 2.82189 | 3559 ft | 213 kts | 196° |
| 2026-04-28 16:49 | 42.04758 | 2.81638 | 3227 ft | 212 kts | 196° |
| 2026-04-28 16:49 | 42.03328 | 2.81092 | 2942 ft | 208 kts | 195° |
| 2026-04-28 16:50 | 42.01944 | 2.80564 | 2666 ft | 201 kts | 195° |
| 2026-04-28 16:50 | 42.00610 | 2.80056 | 2364 ft | 193 kts | 194° |
| 2026-04-28 16:50 | 41.99350 | 2.79576 | 2113 ft | 181 kts | 196° |
| 2026-04-28 16:50 | 41.98174 | 2.79128 | 1870 ft | 167 kts | 195° |
| 2026-04-28 16:51 | 41.97105 | 2.78721 | 1649 ft | 149 kts | 196° |
| 2026-04-28 16:51 | 41.96108 | 2.78341 | 1456 ft | 143 kts | 194° |
| 2026-04-28 16:51 | 41.95084 | 2.77958 | 1672 ft | 160 kts | 195° |
| 2026-04-28 16:51 | 41.94039 | 2.77589 | 2683 ft | 158 kts | 195° |
| 2026-04-28 16:52 | 41.92981 | 2.77239 | 3500 ft | 171 kts | 195° |
| 2026-04-28 16:52 | 41.91571 | 2.77059 | 3255 ft | 241 kts | 177° |
| 2026-04-28 16:52 | 41.89906 | 2.77734 | 2979 ft | 242 kts | 152° |
| 2026-04-28 16:52 | 41.88689 | 2.79201 | 2970 ft | 227 kts | 127° |
| 2026-04-28 16:53 | 41.88100 | 2.81113 | 2987 ft | 212 kts | 104° |
| 2026-04-28 16:53 | 41.87880 | 2.83039 | 2987 ft | 197 kts | 101° |
| 2026-04-28 16:53 | 41.87701 | 2.84841 | 2990 ft | 186 kts | 101° |
| 2026-04-28 16:53 | 41.87645 | 2.86526 | 3140 ft | 178 kts | 83° |
| 2026-04-28 16:54 | 41.88162 | 2.88140 | 3360 ft | 194 kts | 51° |
| 2026-04-28 16:54 | 41.89251 | 2.89277 | 3591 ft | 203 kts | 24° |
| 2026-04-28 16:54 | 41.90599 | 2.90051 | 3946 ft | 217 kts | 21° |
| 2026-04-28 16:54 | 41.91561 | 2.90570 | 4018 ft | 229 kts | 21° |
| 2026-04-28 16:55 | 41.93566 | 2.91637 | 3966 ft | 222 kts | 21° |
| 2026-04-28 16:55 | 41.95034 | 2.92407 | 4002 ft | 226 kts | 21° |
| 2026-04-28 16:55 | 41.96521 | 2.93189 | 3989 ft | 227 kts | 21° |
| 2026-04-28 16:55 | 41.98016 | 2.93976 | 3990 ft | 226 kts | 21° |
| 2026-04-28 16:56 | 41.99497 | 2.94757 | 3993 ft | 226 kts | 21° |
| 2026-04-28 16:56 | 42.00973 | 2.95536 | 3992 ft | 226 kts | 21° |
| 2026-04-28 16:56 | 42.02480 | 2.96333 | 3992 ft | 226 kts | 21° |
| 2026-04-28 16:56 | 42.03969 | 2.97121 | 3993 ft | 226 kts | 21° |
| 2026-04-28 16:57 | 42.05456 | 2.97910 | 3992 ft | 226 kts | 21° |
| 2026-04-28 16:57 | 42.06929 | 2.98683 | 3992 ft | 226 kts | 18° |
| 2026-04-28 16:57 | 42.08503 | 2.99030 | 3977 ft | 225 kts | 354° |
| 2026-04-28 16:57 | 42.10021 | 2.98477 | 3896 ft | 222 kts | 328° |
| 2026-04-28 16:58 | 42.11307 | 2.97334 | 3829 ft | 220 kts | 321° |
| 2026-04-28 16:58 | 42.12552 | 2.96117 | 3734 ft | 220 kts | 321° |
| 2026-04-28 16:58 | 42.13794 | 2.94877 | 3630 ft | 219 kts | 318° |
| 2026-04-28 16:58 | 42.14809 | 2.93361 | 3509 ft | 214 kts | 295° |
| 2026-04-28 16:59 | 42.15235 | 2.91449 | 3361 ft | 209 kts | 269° |
| 2026-04-28 16:59 | 42.14971 | 2.89533 | 3128 ft | 206 kts | 245° |
| 2026-04-28 16:59 | 42.14354 | 2.87776 | 2914 ft | 203 kts | 241° |
| 2026-04-28 16:59 | 42.13723 | 2.86065 | 2684 ft | 200 kts | 240° |
| 2026-04-28 17:00 | 42.12913 | 2.84614 | 2490 ft | 184 kts | 217° |
| 2026-04-28 17:00 | 42.11820 | 2.83970 | 2457 ft | 161 kts | 185° |
| 2026-04-28 17:00 | 42.10739 | 2.83817 | 2511 ft | 153 kts | 190° |
| 2026-04-28 17:00 | 42.09670 | 2.83493 | 2506 ft | 158 kts | 194° |
| 2026-04-28 17:01 | 42.08582 | 2.83094 | 2484 ft | 157 kts | 195° |
| 2026-04-28 17:01 | 42.07529 | 2.82695 | 2495 ft | 156 kts | 195° |
| 2026-04-28 17:01 | 42.06480 | 2.82295 | 2495 ft | 157 kts | 195° |
| 2026-04-28 17:01 | 42.05417 | 2.81889 | 2492 ft | 157 kts | 195° |
| 2026-04-28 17:02 | 42.04354 | 2.81484 | 2493 ft | 157 kts | 195° |
| 2026-04-28 17:02 | 42.03647 | 2.81214 | 2495 ft | 158 kts | 195° |
| 2026-04-28 17:02 | 42.02179 | 2.80654 | 2491 ft | 163 kts | 195° |
| 2026-04-28 17:02 | 42.01091 | 2.80239 | 2455 ft | 164 kts | 195° |
| 2026-04-28 17:03 | 41.98922 | 2.79413 | 2032 ft | 148 kts | 195° |
| 2026-04-28 17:03 | 41.97940 | 2.79039 | 1831 ft | 145 kts | 195° |
| 2026-04-28 17:03 | 41.96966 | 2.78668 | 1640 ft | 144 kts | 195° |
| 2026-04-28 17:04 | 41.95012 | 2.77925 | 1240 ft | 144 kts | 194° |
| 2026-04-28 17:04 | 41.94043 | 2.77556 | 1047 ft | 143 kts | 194° |
| 2026-04-28 17:05 | 41.92116 | 2.76825 | 643 ft | 142 kts | 195° |
| 2026-04-28 17:05 | 41.91154 | 2.76447 | 484 ft | 136 kts | 194° |
| 2026-04-28 17:05 | 41.90418 | 2.76169 | 473 ft | 74 kts | 195° |
| 2026-04-28 17:06 | 41.89781 | 2.75913 | 473 ft | 33 kts | 200° |
| 2026-04-28 17:06 | 41.89587 | 2.75851 | 473 ft | 21 kts | 190° |
| 2026-04-28 17:06 | 41.89563 | 2.76040 | 473 ft | 11 kts | 60° |
| 2026-04-28 17:07 | 41.89620 | 2.76097 | 473 ft | 9 kts | 20° |
| 2026-04-28 17:07 | 41.89679 | 2.76121 | 473 ft | 8 kts | 15° |
| 2026-04-28 17:07 | 41.89734 | 2.76141 | 473 ft | 9 kts | 15° |
| 2026-04-28 17:07 | 41.89809 | 2.76169 | 473 ft | 13 kts | 16° |
| 2026-04-28 17:08 | 41.89898 | 2.76218 | 473 ft | 11 kts | 67° |
| 2026-04-28 17:08 | 41.89883 | 2.76322 | 473 ft | 10 kts | 108° |
| 2026-04-28 17:08 | 41.89858 | 2.76409 | 473 ft | 9 kts | 105° |
| 2026-04-28 17:08 | 41.89847 | 2.76461 | 473 ft | 0 kts | 106° |
| 2026-04-28 17:09 | 41.89846 | 2.76464 | 473 ft | 0 kts | 106° |